createdAt,value
2022-08-20T05:11:49.095Z,14.40
2022-08-20T05:14:16.034Z,14.52
2022-08-20T05:16:42.968Z,15.57
2022-08-20T05:19:12.913Z,18.63
2022-08-20T05:21:40.385Z,14.90
2022-08-20T05:53:59.186Z,15.35
2022-08-20T05:56:30.791Z,15.27
2022-08-20T05:59:00.452Z,15.77
2022-08-20T06:01:27.490Z,13.40
2022-08-20T06:04:13.135Z,15.73
2022-08-20T06:06:44.593Z,13.73
2022-08-20T06:09:14.820Z,14.67
2022-08-20T06:11:41.887Z,13.02
2022-08-20T06:14:08.820Z,11.87
2022-08-20T06:16:37.375Z,14.15
2022-08-20T06:19:05.508Z,14.05
2022-08-20T06:21:32.538Z,14.70
2022-08-20T06:24:01.095Z,12.30
2022-08-20T06:26:30.435Z,14.15
2022-08-20T06:29:02.654Z,14.88
2022-08-20T06:31:29.640Z,12.57
2022-08-20T06:33:57.123Z,12.43
2022-08-20T06:36:24.944Z,12.70
2022-08-20T06:38:52.013Z,12.88
2022-08-20T06:41:18.913Z,8.23
2022-08-20T06:43:46.559Z,15.88
2022-08-20T06:46:14.665Z,9.32
2022-08-20T06:48:41.709Z,11.82
2022-08-20T06:53:37.177Z,15.40
2022-08-20T06:56:04.470Z,9.75
2022-08-20T08:19:39.969Z,10.37
2022-08-20T08:22:13.211Z,8.32
2022-08-20T08:24:57.424Z,6.47
2022-08-20T08:27:25.321Z,7.95
2022-08-20T08:29:52.161Z,10.30
2022-08-20T08:32:19.492Z,7.32
2022-08-20T08:37:15.261Z,8.13
2022-08-20T08:39:42.427Z,9.25
2022-08-20T08:42:38.961Z,8.77
2022-08-20T08:45:10.896Z,7.70
2022-08-20T08:50:10.091Z,11.20
2022-08-20T08:52:41.306Z,7.32
2022-08-20T08:55:22.240Z,8.13
2022-08-20T08:57:50.221Z,10.18
2022-08-20T09:00:19.736Z,7.43
2022-08-20T09:03:22.505Z,6.10
2022-08-20T09:05:53.579Z,6.05
2022-08-20T09:08:27.462Z,10.05
2022-08-20T09:10:54.789Z,8.75
2022-08-20T09:13:22.397Z,6.57
2022-08-20T09:15:49.417Z,7.25
2022-08-20T09:18:16.603Z,9.75
2022-08-20T09:20:43.734Z,6.55
2022-08-20T09:23:10.707Z,7.05
2022-08-20T09:25:37.890Z,7.35
2022-08-20T09:28:09.446Z,5.97
2022-08-20T09:30:36.830Z,8.30
2022-08-20T09:33:05.271Z,8.70
2022-08-20T09:35:32.293Z,7.38
2022-08-20T09:37:59.370Z,4.93
2022-08-20T09:40:26.724Z,8.07
2022-08-20T09:42:53.925Z,8.65
2022-08-20T09:45:21.351Z,11.02
2022-08-20T09:47:56.569Z,8.32
2022-08-20T09:50:26.809Z,8.95
2022-08-20T09:52:55.238Z,9.02
2022-08-20T09:55:28.746Z,7.07
2022-08-20T10:00:22.926Z,5.25
2022-08-20T10:02:49.847Z,5.07
2022-08-20T10:05:16.901Z,7.28
2022-08-20T10:07:43.824Z,8.48
2022-08-20T10:10:13.703Z,6.25
2022-08-20T10:15:09.472Z,5.45
2022-08-20T10:17:41.954Z,6.30
2022-08-20T10:20:11.310Z,8.27
2022-08-20T10:22:38.341Z,5.28
2022-08-20T10:25:06.426Z,5.28
2022-08-20T10:27:34.297Z,6.68
2022-08-20T10:30:02.433Z,6.00
2022-08-20T10:32:29.623Z,8.23
2022-08-20T10:34:56.677Z,6.00
2022-08-20T10:37:25.625Z,5.75
2022-08-20T10:39:53.292Z,6.60
2022-08-20T10:42:20.474Z,5.90
2022-08-20T11:06:50.591Z,8.32
2022-08-20T11:09:17.593Z,6.72
2022-08-20T11:11:44.556Z,7.55
2022-08-20T11:14:11.571Z,8.13
2022-08-20T11:16:38.511Z,6.90
2022-08-20T11:19:05.396Z,8.50
2022-08-20T11:21:32.361Z,9.60
2022-08-20T11:24:02.713Z,8.00
2022-08-20T11:26:30.162Z,8.10
2022-08-20T11:28:57.098Z,6.88
2022-08-20T11:31:24.023Z,9.85
2022-08-20T11:33:50.883Z,7.10
2022-08-20T11:36:17.911Z,8.13
2022-08-20T11:38:44.915Z,7.75
2022-08-20T11:41:11.893Z,8.17
2022-08-20T11:43:38.817Z,7.55
2022-08-20T11:46:06.102Z,7.03
2022-08-20T11:48:33.019Z,8.10
2022-08-20T11:51:00.346Z,4.38
2022-08-20T11:53:27.187Z,7.93
2022-08-20T11:55:55.618Z,4.70
2022-08-20T11:58:22.649Z,5.80
2022-08-20T12:00:49.801Z,6.72
2022-08-20T12:03:16.779Z,5.53
2022-08-20T12:05:45.928Z,8.00
2022-08-20T12:15:57.942Z,7.78
2022-08-20T12:20:54.763Z,4.57
2022-08-20T12:23:21.703Z,7.30
2022-08-20T12:25:48.974Z,7.13
2022-08-20T12:28:15.964Z,6.22
2022-08-20T12:30:42.845Z,6.57
2022-08-20T12:33:09.855Z,4.32
2022-08-20T12:35:37.244Z,4.72
2022-08-20T12:38:06.320Z,7.35
2022-08-20T12:40:34.373Z,5.10
2022-08-20T12:43:02.683Z,5.95
2022-08-20T12:45:30.611Z,4.63
2022-08-20T12:48:09.445Z,7.82
2022-08-20T12:50:37.755Z,7.72
2022-08-20T12:53:05.586Z,7.07
2022-08-20T12:55:33.093Z,12.93
2022-08-20T13:00:43.098Z,7.30
2022-08-20T13:03:12.656Z,6.53
2022-08-20T13:05:40.248Z,6.95
2022-08-20T13:08:09.517Z,7.25
2022-08-20T13:10:44.060Z,6.75
2022-08-20T13:15:42.028Z,7.13
2022-08-20T13:18:09.198Z,7.75
2022-08-20T13:20:36.895Z,7.00
2022-08-20T13:23:05.335Z,8.88
2022-08-20T13:25:33.137Z,6.43
2022-08-20T13:28:04.485Z,6.13
2022-08-20T13:30:33.210Z,5.97
2022-08-20T13:33:00.295Z,7.57
2022-08-20T13:35:27.183Z,5.50
2022-08-20T13:37:54.113Z,6.05
2022-08-20T13:50:17.135Z,8.40
2022-08-20T13:52:44.791Z,6.85
2022-08-20T13:55:17.732Z,8.18
2022-08-20T13:57:46.579Z,6.63
2022-08-20T14:05:11.223Z,8.02
2022-08-20T14:07:41.203Z,5.60
2022-08-20T14:27:27.762Z,7.70
2022-08-20T14:29:58.241Z,7.77
2022-08-20T14:32:25.802Z,7.80
2022-08-20T14:34:53.701Z,6.57
2022-08-20T14:37:26.731Z,6.43
2022-08-20T14:39:57.080Z,7.22
2022-08-20T14:42:27.078Z,8.98
2022-08-20T14:44:59.042Z,5.80
2022-08-20T14:47:30.054Z,9.50
2022-08-20T14:50:04.838Z,6.25
2022-08-20T14:52:36.362Z,7.57
2022-08-20T14:55:09.545Z,7.18
2022-08-20T14:57:37.690Z,7.10
2022-08-20T15:00:08.149Z,6.90
2022-08-20T15:05:02.327Z,10.93
2022-08-20T15:07:32.461Z,7.22
2022-08-20T15:10:01.095Z,7.55
2022-08-20T15:12:28.922Z,6.82
2022-08-20T15:14:55.971Z,6.80
2022-08-20T15:17:29.588Z,8.48
2022-08-20T15:22:24.833Z,7.82
2022-08-20T15:24:55.474Z,6.75
2022-08-20T15:29:53.045Z,7.30
2022-08-20T15:32:20.853Z,7.20
2022-08-20T15:34:47.901Z,6.60
2022-08-20T15:37:21.118Z,8.63
2022-08-20T15:39:48.435Z,9.50
2022-08-20T15:42:16.656Z,6.68
2022-08-20T15:44:44.215Z,7.00
2022-08-20T15:47:34.923Z,8.98
2022-08-20T15:52:42.168Z,7.38
2022-08-20T15:55:15.638Z,7.80
2022-08-20T15:58:14.012Z,7.10
2022-08-20T16:00:49.977Z,8.40
2022-08-20T16:03:25.678Z,7.25
2022-08-20T16:06:06.417Z,8.68
2022-08-20T16:09:38.267Z,7.65
2022-08-20T16:12:12.144Z,9.20
2022-08-20T16:14:42.834Z,7.43
2022-08-20T16:17:13.689Z,8.48
2022-08-20T16:19:52.469Z,8.15
2022-08-20T16:22:19.967Z,6.93
2022-08-20T16:24:47.302Z,8.02
2022-08-20T16:27:35.974Z,7.40
2022-08-20T16:30:11.861Z,6.07
2022-08-20T16:32:46.369Z,6.95
2022-08-20T16:35:30.169Z,8.30
2022-08-20T16:38:21.006Z,9.05
2022-08-20T16:40:55.038Z,7.57
2022-08-20T16:44:02.749Z,6.35
2022-08-20T16:46:37.953Z,7.13
2022-08-20T16:49:13.811Z,6.97
2022-08-20T16:51:52.035Z,6.40
2022-08-20T16:54:29.236Z,6.63
2022-08-20T16:57:06.120Z,7.93
2022-08-20T16:59:33.649Z,7.07
2022-08-20T17:02:11.185Z,7.38
2022-08-20T17:04:59.638Z,8.75
2022-08-20T17:07:58.898Z,7.65
2022-08-20T17:10:33.464Z,9.70
2022-08-20T17:13:06.376Z,8.43
2022-08-20T17:15:35.275Z,8.13
2022-08-20T17:18:25.949Z,7.68
2022-08-20T17:20:53.206Z,10.30
2022-08-20T17:23:21.391Z,9.65
2022-08-20T17:26:04.720Z,8.07
2022-08-20T17:28:35.250Z,9.07
2022-08-20T17:31:02.546Z,8.77
2022-08-20T17:33:35.784Z,8.23
2022-08-20T17:36:11.423Z,7.95
2022-08-20T17:38:46.555Z,8.35
2022-08-20T17:41:27.406Z,9.45
2022-08-20T17:44:03.870Z,8.75
2022-08-20T17:46:44.546Z,8.43
2022-08-20T17:49:17.366Z,9.07
2022-08-20T17:51:51.749Z,8.70
2022-08-20T17:54:23.117Z,8.65
2022-08-20T17:56:55.758Z,8.15
2022-08-20T18:00:01.071Z,8.85
2022-08-20T18:02:24.000Z,8.27
2022-08-20T18:04:53.589Z,8.17
2022-08-20T18:07:41.030Z,9.02
2022-08-20T18:10:14.718Z,9.80
2022-08-20T18:12:50.924Z,9.65
2022-08-20T18:15:36.169Z,8.73
2022-08-20T18:18:18.231Z,8.63
2022-08-20T18:20:51.299Z,10.02
2022-08-20T18:23:31.406Z,12.05
2022-08-20T18:26:06.449Z,8.10
2022-08-20T18:28:46.873Z,9.88
2022-08-20T18:31:53.649Z,8.27
2022-08-20T18:34:29.695Z,11.13
2022-08-20T18:37:06.830Z,10.18
2022-08-20T18:39:35.219Z,7.77
2022-08-20T18:42:22.991Z,8.18
2022-08-20T18:44:52.508Z,8.60
2022-08-20T18:47:33.080Z,7.85
2022-08-20T18:50:06.544Z,10.90
2022-08-20T18:52:46.534Z,7.93
2022-08-20T18:55:36.809Z,7.75
2022-08-20T18:58:07.345Z,9.95
2022-08-20T19:00:47.635Z,7.53
2022-08-20T19:03:17.494Z,8.43
2022-08-20T19:06:07.530Z,7.65
2022-08-20T19:08:48.358Z,8.38
2022-08-20T19:11:24.902Z,8.65
2022-08-20T19:14:26.959Z,9.63
2022-08-20T19:17:04.213Z,8.35
2022-08-20T19:19:33.087Z,8.05
2022-08-20T19:22:02.007Z,7.53
2022-08-20T19:24:32.553Z,8.77
2022-08-20T19:27:04.808Z,10.57
2022-08-20T19:29:37.052Z,8.43
2022-08-20T19:32:07.673Z,9.27
2022-08-20T19:34:35.643Z,8.82
2022-08-20T19:37:34.890Z,6.95
2022-08-20T19:40:18.517Z,7.90
2022-08-20T19:42:46.543Z,8.32
2022-08-20T19:45:26.005Z,7.93
2022-08-20T19:48:27.133Z,9.73
2022-08-20T19:51:10.657Z,10.18
2022-08-20T19:53:43.081Z,9.60
2022-08-20T19:56:14.669Z,9.82
2022-08-20T19:58:42.436Z,8.10
2022-08-20T20:01:21.257Z,10.53
2022-08-20T20:04:00.681Z,7.88
2022-08-20T20:06:30.042Z,9.68
2022-08-20T20:08:58.796Z,11.13
2022-08-20T20:11:41.179Z,13.45
2022-08-20T20:14:12.339Z,11.90
2022-08-20T20:16:41.597Z,12.32
2022-08-20T20:19:26.408Z,10.02
2022-08-20T20:22:19.752Z,11.50
2022-08-20T20:24:57.677Z,12.05
2022-08-20T20:27:27.381Z,10.35
2022-08-20T20:30:11.974Z,10.60
2022-08-20T20:32:48.654Z,8.87
2022-08-20T20:35:34.543Z,11.23
2022-08-20T20:38:06.294Z,8.70
2022-08-20T20:40:49.562Z,9.57
2022-08-20T20:43:43.018Z,8.32
2022-08-20T20:46:19.909Z,9.10
2022-08-20T20:48:50.188Z,9.82
2022-08-20T20:51:27.258Z,8.48
2022-08-20T20:53:57.564Z,10.10
2022-08-20T20:56:40.136Z,9.00
2022-08-20T20:59:08.406Z,10.57
2022-08-20T21:01:48.885Z,9.40
2022-08-20T21:04:17.987Z,10.25
2022-08-20T21:06:45.230Z,10.27
2022-08-20T21:09:12.812Z,10.18
2022-08-20T21:11:39.709Z,11.05
2022-08-20T21:14:06.795Z,10.38
2022-08-20T21:16:33.939Z,10.73
2022-08-20T21:19:04.445Z,12.00
2022-08-20T21:21:31.382Z,9.65
2022-08-20T21:23:58.320Z,8.68
2022-08-20T21:26:27.658Z,13.20
2022-08-20T21:28:54.683Z,12.15
2022-08-20T21:31:22.302Z,10.82
2022-08-20T21:33:49.178Z,8.80
2022-08-20T21:36:16.120Z,10.15
2022-08-20T21:38:43.202Z,9.95
2022-08-20T21:41:10.328Z,11.05
2022-08-20T21:43:37.895Z,8.93
2022-08-20T21:46:05.131Z,10.88
2022-08-20T21:48:32.547Z,10.55
2022-08-20T21:50:59.649Z,9.15
2022-08-20T21:53:26.620Z,10.70
2022-08-20T21:55:53.625Z,15.27
2022-08-20T21:58:21.434Z,11.75
